sensor_id;sensor_type;location;lat;lon;timestamp;temperature;humidity
48860;DHT22;34679;51.436;-2.518;2023-03-11T00:00:35;0.40;99.90
48860;DHT22;34679;51.436;-2.518;2023-03-11T00:03:03;0.40;99.90
48860;DHT22;34679;51.436;-2.518;2023-03-11T00:05:31;0.30;99.90
48860;DHT22;34679;51.436;-2.518;2023-03-11T00:07:58;0.20;99.90
48860;DHT22;34679;51.436;-2.518;2023-03-11T00:10:25;0.20;99.90
48860;DHT22;34679;51.436;-2.518;2023-03-11T00:12:51;0.10;99.90
48860;DHT22;34679;51.436;-2.518;2023-03-11T00:15:17;0.10;99.90
48860;DHT22;34679;51.436;-2.518;2023-03-11T00:17:43;0.10;99.90
48860;DHT22;34679;51.436;-2.518;2023-03-11T00:20:34;0.10;99.90
48860;DHT22;34679;51.436;-2.518;2023-03-11T00:23:01;0.20;99.90
48860;DHT22;34679;51.436;-2.518;2023-03-11T00:25:29;0.20;99.90
48860;DHT22;34679;51.436;-2.518;2023-03-11T00:27:57;0.30;99.90
48860;DHT22;34679;51.436;-2.518;2023-03-11T00:30:23;0.20;99.90
48860;DHT22;34679;51.436;-2.518;2023-03-11T00:32:50;0.30;99.90
48860;DHT22;34679;51.436;-2.518;2023-03-11T00:35:19;0.30;99.90
48860;DHT22;34679;51.436;-2.518;2023-03-11T00:37:46;0.20;99.90
48860;DHT22;34679;51.436;-2.518;2023-03-11T00:40:17;0.20;99.90
48860;DHT22;34679;51.436;-2.518;2023-03-11T00:42:43;0.10;99.90
48860;DHT22;34679;51.436;-2.518;2023-03-11T00:45:09;0.10;99.90
48860;DHT22;34679;51.436;-2.518;2023-03-11T00:47:35;0.10;99.90
48860;DHT22;34679;51.436;-2.518;2023-03-11T00:50:01;0.10;99.90
48860;DHT22;34679;51.436;-2.518;2023-03-11T00:52:26;0.10;99.90
48860;DHT22;34679;51.436;-2.518;2023-03-11T00:54:54;0.10;99.90
48860;DHT22;34679;51.436;-2.518;2023-03-11T00:57:19;0.00;99.90
48860;DHT22;34679;51.436;-2.518;2023-03-11T00:59:45;-0.10;99.90
48860;DHT22;34679;51.436;-2.518;2023-03-11T01:02:11;-0.20;99.90
48860;DHT22;34679;51.436;-2.518;2023-03-11T01:04:36;-0.20;99.90
48860;DHT22;34679;51.436;-2.518;2023-03-11T01:07:02;-0.20;99.90
48860;DHT22;34679;51.436;-2.518;2023-03-11T01:09:28;-0.30;99.90
48860;DHT22;34679;51.436;-2.518;2023-03-11T01:11:54;-0.40;99.90
48860;DHT22;34679;51.436;-2.518;2023-03-11T01:14:20;-0.30;99.90
48860;DHT22;34679;51.436;-2.518;2023-03-11T01:16:46;-0.30;99.90
48860;DHT22;34679;51.436;-2.518;2023-03-11T01:19:12;-0.40;99.90
48860;DHT22;34679;51.436;-2.518;2023-03-11T01:21:37;-0.50;99.90
48860;DHT22;34679;51.436;-2.518;2023-03-11T01:24:03;-0.50;99.90
48860;DHT22;34679;51.436;-2.518;2023-03-11T01:26:29;-0.50;99.90
48860;DHT22;34679;51.436;-2.518;2023-03-11T01:28:55;-0.40;99.90
48860;DHT22;34679;51.436;-2.518;2023-03-11T01:31:21;-0.40;99.90
48860;DHT22;34679;51.436;-2.518;2023-03-11T01:33:46;-0.40;99.90
48860;DHT22;34679;51.436;-2.518;2023-03-11T01:36:12;-0.40;99.90
48860;DHT22;34679;51.436;-2.518;2023-03-11T01:38:38;-0.40;99.90
48860;DHT22;34679;51.436;-2.518;2023-03-11T01:41:04;-0.40;99.90
48860;DHT22;34679;51.436;-2.518;2023-03-11T01:48:49;-0.60;99.90
48860;DHT22;34679;51.436;-2.518;2023-03-11T01:51:18;-0.60;99.90
48860;DHT22;34679;51.436;-2.518;2023-03-11T01:53:45;-0.70;99.90
48860;DHT22;34679;51.436;-2.518;2023-03-11T01:56:12;-0.70;99.90
48860;DHT22;34679;51.436;-2.518;2023-03-11T01:58:41;-0.70;99.90
48860;DHT22;34679;51.436;-2.518;2023-03-11T02:01:09;-0.70;99.90
48860;DHT22;34679;51.436;-2.518;2023-03-11T02:03:38;-0.70;99.90
48860;DHT22;34679;51.436;-2.518;2023-03-11T02:06:10;-0.60;99.90
48860;DHT22;34679;51.436;-2.518;2023-03-11T02:08:38;-0.50;99.90
48860;DHT22;34679;51.436;-2.518;2023-03-11T02:11:07;-0.40;99.90
48860;DHT22;34679;51.436;-2.518;2023-03-11T02:13:35;-0.30;99.90
48860;DHT22;34679;51.436;-2.518;2023-03-11T02:16:02;-0.30;99.90
48860;DHT22;34679;51.436;-2.518;2023-03-11T02:18:28;-0.10;99.90
48860;DHT22;34679;51.436;-2.518;2023-03-11T02:21:03;0.00;99.90
48860;DHT22;34679;51.436;-2.518;2023-03-11T02:23:41;0.10;99.90
48860;DHT22;34679;51.436;-2.518;2023-03-11T02:26:18;0.10;99.90
48860;DHT22;34679;51.436;-2.518;2023-03-11T02:28:47;0.10;99.90
48860;DHT22;34679;51.436;-2.518;2023-03-11T02:31:15;0.10;99.90
48860;DHT22;34679;51.436;-2.518;2023-03-11T02:33:42;0.10;99.90
48860;DHT22;34679;51.436;-2.518;2023-03-11T02:36:29;0.20;99.90
48860;DHT22;34679;51.436;-2.518;2023-03-11T02:38:54;0.20;99.90
48860;DHT22;34679;51.436;-2.518;2023-03-11T02:41:20;0.20;99.90
48860;DHT22;34679;51.436;-2.518;2023-03-11T02:43:47;0.20;99.90
48860;DHT22;34679;51.436;-2.518;2023-03-11T02:46:14;0.20;99.90
48860;DHT22;34679;51.436;-2.518;2023-03-11T02:48:40;0.30;99.90
48860;DHT22;34679;51.436;-2.518;2023-03-11T02:51:07;0.40;99.90
48860;DHT22;34679;51.436;-2.518;2023-03-11T02:53:40;0.30;99.90
48860;DHT22;34679;51.436;-2.518;2023-03-11T02:56:09;0.30;99.90
48860;DHT22;34679;51.436;-2.518;2023-03-11T02:58:34;0.30;99.90
48860;DHT22;34679;51.436;-2.518;2023-03-11T03:01:00;0.30;99.90
48860;DHT22;34679;51.436;-2.518;2023-03-11T03:03:26;0.30;99.90
48860;DHT22;34679;51.436;-2.518;2023-03-11T03:05:51;0.30;99.90
48860;DHT22;34679;51.436;-2.518;2023-03-11T03:08:17;0.30;99.90
48860;DHT22;34679;51.436;-2.518;2023-03-11T03:10:43;0.30;99.90
48860;DHT22;34679;51.436;-2.518;2023-03-11T03:13:08;0.30;99.90
48860;DHT22;34679;51.436;-2.518;2023-03-11T03:15:34;0.30;99.90
48860;DHT22;34679;51.436;-2.518;2023-03-11T03:18:00;0.30;99.90
48860;DHT22;34679;51.436;-2.518;2023-03-11T03:20:26;0.30;99.90
48860;DHT22;34679;51.436;-2.518;2023-03-11T03:22:52;0.30;99.90
48860;DHT22;34679;51.436;-2.518;2023-03-11T03:25:18;0.30;99.90
48860;DHT22;34679;51.436;-2.518;2023-03-11T03:27:43;0.30;99.90
48860;DHT22;34679;51.436;-2.518;2023-03-11T03:30:09;0.40;99.90
48860;DHT22;34679;51.436;-2.518;2023-03-11T03:32:35;0.40;99.90
48860;DHT22;34679;51.436;-2.518;2023-03-11T03:35:02;0.40;99.90
48860;DHT22;34679;51.436;-2.518;2023-03-11T03:37:30;0.40;99.90
48860;DHT22;34679;51.436;-2.518;2023-03-11T03:39:56;0.50;99.90
48860;DHT22;34679;51.436;-2.518;2023-03-11T03:42:22;0.50;99.90
48860;DHT22;34679;51.436;-2.518;2023-03-11T03:44:52;0.50;99.90
48860;DHT22;34679;51.436;-2.518;2023-03-11T03:47:18;0.50;99.90
48860;DHT22;34679;51.436;-2.518;2023-03-11T03:49:44;0.50;99.90
48860;DHT22;34679;51.436;-2.518;2023-03-11T03:52:10;0.50;99.90
48860;DHT22;34679;51.436;-2.518;2023-03-11T03:54:36;0.50;99.90
48860;DHT22;34679;51.436;-2.518;2023-03-11T03:57:03;0.60;99.90
48860;DHT22;34679;51.436;-2.518;2023-03-11T03:59:29;0.60;99.90
48860;DHT22;34679;51.436;-2.518;2023-03-11T04:01:55;0.70;99.90
48860;DHT22;34679;51.436;-2.518;2023-03-11T04:04:21;0.70;99.90
48860;DHT22;34679;51.436;-2.518;2023-03-11T04:06:46;0.70;99.90
48860;DHT22;34679;51.436;-2.518;2023-03-11T04:09:12;0.80;99.90
48860;DHT22;34679;51.436;-2.518;2023-03-11T04:11:38;0.80;99.90
48860;DHT22;34679;51.436;-2.518;2023-03-11T04:14:04;0.80;99.90
48860;DHT22;34679;51.436;-2.518;2023-03-11T04:16:30;0.80;99.90
48860;DHT22;34679;51.436;-2.518;2023-03-11T04:18:56;0.80;99.90
48860;DHT22;34679;51.436;-2.518;2023-03-11T04:21:22;0.80;99.90
48860;DHT22;34679;51.436;-2.518;2023-03-11T04:23:48;0.80;99.90
48860;DHT22;34679;51.436;-2.518;2023-03-11T04:26:14;0.80;99.90
48860;DHT22;34679;51.436;-2.518;2023-03-11T04:28:39;0.90;99.90
48860;DHT22;34679;51.436;-2.518;2023-03-11T04:31:05;0.90;99.90
48860;DHT22;34679;51.436;-2.518;2023-03-11T04:33:31;1.00;99.90
48860;DHT22;34679;51.436;-2.518;2023-03-11T04:35:57;1.00;99.90
48860;DHT22;34679;51.436;-2.518;2023-03-11T04:38:23;1.00;99.90
48860;DHT22;34679;51.436;-2.518;2023-03-11T04:40:49;1.00;99.90
48860;DHT22;34679;51.436;-2.518;2023-03-11T04:43:15;1.10;99.90
48860;DHT22;34679;51.436;-2.518;2023-03-11T04:45:41;1.20;99.90
48860;DHT22;34679;51.436;-2.518;2023-03-11T04:48:07;1.30;99.90
48860;DHT22;34679;51.436;-2.518;2023-03-11T04:50:33;1.30;99.90
48860;DHT22;34679;51.436;-2.518;2023-03-11T04:52:59;1.30;99.90
48860;DHT22;34679;51.436;-2.518;2023-03-11T04:55:25;1.30;99.90
48860;DHT22;34679;51.436;-2.518;2023-03-11T04:57:50;1.30;99.90
48860;DHT22;34679;51.436;-2.518;2023-03-11T05:00:16;1.30;99.90
48860;DHT22;34679;51.436;-2.518;2023-03-11T05:02:46;1.30;99.90
48860;DHT22;34679;51.436;-2.518;2023-03-11T05:05:12;1.40;99.90
48860;DHT22;34679;51.436;-2.518;2023-03-11T05:07:37;1.50;99.90
48860;DHT22;34679;51.436;-2.518;2023-03-11T05:10:04;1.50;99.90
48860;DHT22;34679;51.436;-2.518;2023-03-11T05:12:31;1.50;99.90
48860;DHT22;34679;51.436;-2.518;2023-03-11T05:14:57;1.50;99.90
48860;DHT22;34679;51.436;-2.518;2023-03-11T05:17:23;1.60;99.90
48860;DHT22;34679;51.436;-2.518;2023-03-11T05:19:50;1.60;99.90
48860;DHT22;34679;51.436;-2.518;2023-03-11T05:22:15;1.60;99.90
48860;DHT22;34679;51.436;-2.518;2023-03-11T05:24:41;1.60;99.90
48860;DHT22;34679;51.436;-2.518;2023-03-11T05:27:07;1.60;99.90
48860;DHT22;34679;51.436;-2.518;2023-03-11T05:29:33;1.70;99.90
48860;DHT22;34679;51.436;-2.518;2023-03-11T05:31:58;1.60;99.90
48860;DHT22;34679;51.436;-2.518;2023-03-11T05:34:24;1.60;99.90
48860;DHT22;34679;51.436;-2.518;2023-03-11T05:36:50;1.60;99.90
48860;DHT22;34679;51.436;-2.518;2023-03-11T05:39:15;1.60;99.90
48860;DHT22;34679;51.436;-2.518;2023-03-11T05:41:41;1.60;99.90
48860;DHT22;34679;51.436;-2.518;2023-03-11T05:44:07;1.60;99.90
48860;DHT22;34679;51.436;-2.518;2023-03-11T05:46:33;1.60;99.90
48860;DHT22;34679;51.436;-2.518;2023-03-11T05:48:59;1.70;99.90
48860;DHT22;34679;51.436;-2.518;2023-03-11T05:51:25;1.70;99.90
48860;DHT22;34679;51.436;-2.518;2023-03-11T05:53:51;1.70;99.90
48860;DHT22;34679;51.436;-2.518;2023-03-11T05:56:19;1.70;99.90
48860;DHT22;34679;51.436;-2.518;2023-03-11T05:58:45;1.70;99.90
48860;DHT22;34679;51.436;-2.518;2023-03-11T06:01:13;1.70;99.90
48860;DHT22;34679;51.436;-2.518;2023-03-11T06:03:40;1.70;99.90
48860;DHT22;34679;51.436;-2.518;2023-03-11T06:06:07;1.70;99.90
48860;DHT22;34679;51.436;-2.518;2023-03-11T06:08:34;1.80;99.90
48860;DHT22;34679;51.436;-2.518;2023-03-11T06:11:07;1.80;99.90
48860;DHT22;34679;51.436;-2.518;2023-03-11T06:13:34;1.80;99.90
48860;DHT22;34679;51.436;-2.518;2023-03-11T06:16:00;1.90;99.90
48860;DHT22;34679;51.436;-2.518;2023-03-11T06:18:26;1.90;99.90
48860;DHT22;34679;51.436;-2.518;2023-03-11T06:20:52;1.80;99.90
48860;DHT22;34679;51.436;-2.518;2023-03-11T06:23:19;1.80;99.90
48860;DHT22;34679;51.436;-2.518;2023-03-11T06:25:57;1.80;99.90
48860;DHT22;34679;51.436;-2.518;2023-03-11T06:28:23;1.80;99.90
48860;DHT22;34679;51.436;-2.518;2023-03-11T06:30:49;1.80;99.90
48860;DHT22;34679;51.436;-2.518;2023-03-11T06:33:15;1.90;99.90
48860;DHT22;34679;51.436;-2.518;2023-03-11T06:35:41;1.90;99.90
48860;DHT22;34679;51.436;-2.518;2023-03-11T06:38:06;1.90;99.90
48860;DHT22;34679;51.436;-2.518;2023-03-11T06:40:32;1.90;99.90
48860;DHT22;34679;51.436;-2.518;2023-03-11T06:42:58;1.90;99.90
48860;DHT22;34679;51.436;-2.518;2023-03-11T06:45:24;1.80;99.90
48860;DHT22;34679;51.436;-2.518;2023-03-11T06:47:49;1.90;99.90
48860;DHT22;34679;51.436;-2.518;2023-03-11T06:50:16;1.90;99.90
48860;DHT22;34679;51.436;-2.518;2023-03-11T06:52:41;1.90;99.90
48860;DHT22;34679;51.436;-2.518;2023-03-11T06:55:07;1.90;99.90
48860;DHT22;34679;51.436;-2.518;2023-03-11T06:57:33;2.00;99.90
48860;DHT22;34679;51.436;-2.518;2023-03-11T06:59:59;2.00;99.90
48860;DHT22;34679;51.436;-2.518;2023-03-11T07:02:25;2.00;99.90
48860;DHT22;34679;51.436;-2.518;2023-03-11T07:04:51;1.90;99.90
48860;DHT22;34679;51.436;-2.518;2023-03-11T07:07:16;2.00;99.90
48860;DHT22;34679;51.436;-2.518;2023-03-11T07:09:42;2.00;99.90
48860;DHT22;34679;51.436;-2.518;2023-03-11T07:12:08;2.00;99.90
48860;DHT22;34679;51.436;-2.518;2023-03-11T07:14:34;2.10;99.90
48860;DHT22;34679;51.436;-2.518;2023-03-11T07:17:00;2.10;99.90
48860;DHT22;34679;51.436;-2.518;2023-03-11T07:19:27;2.20;99.90
48860;DHT22;34679;51.436;-2.518;2023-03-11T07:21:53;2.20;99.90
48860;DHT22;34679;51.436;-2.518;2023-03-11T07:24:18;2.30;99.90
48860;DHT22;34679;51.436;-2.518;2023-03-11T07:26:44;2.30;99.90
48860;DHT22;34679;51.436;-2.518;2023-03-11T07:29:10;2.30;99.90
48860;DHT22;34679;51.436;-2.518;2023-03-11T07:31:36;2.40;99.90
48860;DHT22;34679;51.436;-2.518;2023-03-11T07:34:05;2.50;99.90
48860;DHT22;34679;51.436;-2.518;2023-03-11T07:36:35;2.60;99.90
48860;DHT22;34679;51.436;-2.518;2023-03-11T07:39:04;2.60;99.90
48860;DHT22;34679;51.436;-2.518;2023-03-11T07:41:32;2.80;99.90
48860;DHT22;34679;51.436;-2.518;2023-03-11T07:43:59;2.80;99.90
48860;DHT22;34679;51.436;-2.518;2023-03-11T07:46:26;3.00;99.90
48860;DHT22;34679;51.436;-2.518;2023-03-11T07:48:52;3.20;99.90
48860;DHT22;34679;51.436;-2.518;2023-03-11T07:51:24;3.20;99.90
48860;DHT22;34679;51.436;-2.518;2023-03-11T07:53:52;3.20;99.90
48860;DHT22;34679;51.436;-2.518;2023-03-11T07:56:18;3.30;99.90
48860;DHT22;34679;51.436;-2.518;2023-03-11T07:58:45;3.20;99.90
48860;DHT22;34679;51.436;-2.518;2023-03-11T08:01:13;3.10;99.90
48860;DHT22;34679;51.436;-2.518;2023-03-11T08:03:43;3.10;99.90
48860;DHT22;34679;51.436;-2.518;2023-03-11T08:08:43;3.20;99.90
48860;DHT22;34679;51.436;-2.518;2023-03-11T08:11:09;3.30;99.90
48860;DHT22;34679;51.436;-2.518;2023-03-11T08:13:34;3.40;99.90
48860;DHT22;34679;51.436;-2.518;2023-03-11T08:16:04;3.50;99.90
48860;DHT22;34679;51.436;-2.518;2023-03-11T08:18:30;3.50;99.90
48860;DHT22;34679;51.436;-2.518;2023-03-11T08:20:56;3.70;99.90
48860;DHT22;34679;51.436;-2.518;2023-03-11T08:23:22;3.80;99.90
48860;DHT22;34679;51.436;-2.518;2023-03-11T08:25:47;3.90;99.90
48860;DHT22;34679;51.436;-2.518;2023-03-11T08:28:13;4.00;99.90
48860;DHT22;34679;51.436;-2.518;2023-03-11T08:30:39;3.90;99.90
48860;DHT22;34679;51.436;-2.518;2023-03-11T08:33:04;3.90;99.90
48860;DHT22;34679;51.436;-2.518;2023-03-11T08:35:31;4.00;99.90
48860;DHT22;34679;51.436;-2.518;2023-03-11T08:37:56;4.00;99.90
48860;DHT22;34679;51.436;-2.518;2023-03-11T08:40:22;3.90;99.90
48860;DHT22;34679;51.436;-2.518;2023-03-11T08:42:48;3.90;99.90
48860;DHT22;34679;51.436;-2.518;2023-03-11T08:45:14;3.90;99.90
48860;DHT22;34679;51.436;-2.518;2023-03-11T08:47:40;3.90;99.90
48860;DHT22;34679;51.436;-2.518;2023-03-11T08:50:12;3.90;99.90
48860;DHT22;34679;51.436;-2.518;2023-03-11T08:52:38;4.00;99.90
48860;DHT22;34679;51.436;-2.518;2023-03-11T08:55:04;4.10;99.90
48860;DHT22;34679;51.436;-2.518;2023-03-11T08:57:30;4.20;99.90
48860;DHT22;34679;51.436;-2.518;2023-03-11T08:59:57;4.20;99.90
48860;DHT22;34679;51.436;-2.518;2023-03-11T09:02:24;4.30;99.90
48860;DHT22;34679;51.436;-2.518;2023-03-11T09:04:50;4.30;99.90
48860;DHT22;34679;51.436;-2.518;2023-03-11T09:07:16;4.30;99.90
48860;DHT22;34679;51.436;-2.518;2023-03-11T09:09:42;4.30;99.90
48860;DHT22;34679;51.436;-2.518;2023-03-11T09:12:08;4.30;99.90
48860;DHT22;34679;51.436;-2.518;2023-03-11T09:14:34;4.40;99.90
48860;DHT22;34679;51.436;-2.518;2023-03-11T09:17:01;4.40;99.90
48860;DHT22;34679;51.436;-2.518;2023-03-11T09:19:27;4.50;99.90
48860;DHT22;34679;51.436;-2.518;2023-03-11T09:21:53;4.60;99.90
48860;DHT22;34679;51.436;-2.518;2023-03-11T09:24:19;4.80;99.90
48860;DHT22;34679;51.436;-2.518;2023-03-11T09:26:44;4.90;99.90
48860;DHT22;34679;51.436;-2.518;2023-03-11T09:29:10;5.10;99.90
48860;DHT22;34679;51.436;-2.518;2023-03-11T09:31:36;5.10;99.90
48860;DHT22;34679;51.436;-2.518;2023-03-11T09:34:02;5.10;99.90
48860;DHT22;34679;51.436;-2.518;2023-03-11T09:36:28;5.10;99.90
48860;DHT22;34679;51.436;-2.518;2023-03-11T09:38:54;5.10;99.90
48860;DHT22;34679;51.436;-2.518;2023-03-11T09:41:37;5.00;99.90
48860;DHT22;34679;51.436;-2.518;2023-03-11T09:47:33;5.20;99.90
48860;DHT22;34679;51.436;-2.518;2023-03-11T09:53:21;5.60;99.90
48860;DHT22;34679;51.436;-2.518;2023-03-11T09:55:58;5.70;99.90
48860;DHT22;34679;51.436;-2.518;2023-03-11T10:00:50;5.60;99.90
48860;DHT22;34679;51.436;-2.518;2023-03-11T10:03:35;5.50;99.90
48860;DHT22;34679;51.436;-2.518;2023-03-11T10:08:51;5.70;99.90
48860;DHT22;34679;51.436;-2.518;2023-03-11T10:11:33;5.70;99.90
48860;DHT22;34679;51.436;-2.518;2023-03-11T10:20:10;5.70;99.90
48860;DHT22;34679;51.436;-2.518;2023-03-11T10:25:27;6.00;99.90
48860;DHT22;34679;51.436;-2.518;2023-03-11T10:28:07;6.20;99.90
48860;DHT22;34679;51.436;-2.518;2023-03-11T10:30:48;6.40;99.90
48860;DHT22;34679;51.436;-2.518;2023-03-11T10:33:39;6.50;99.90
48860;DHT22;34679;51.436;-2.518;2023-03-11T10:36:18;6.80;99.90
48860;DHT22;34679;51.436;-2.518;2023-03-11T10:38:49;7.00;99.90
48860;DHT22;34679;51.436;-2.518;2023-03-11T10:41:27;7.00;99.90
48860;DHT22;34679;51.436;-2.518;2023-03-11T10:44:05;7.10;99.90
48860;DHT22;34679;51.436;-2.518;2023-03-11T10:46:31;7.00;99.90
48860;DHT22;34679;51.436;-2.518;2023-03-11T10:48:57;7.10;99.90
48860;DHT22;34679;51.436;-2.518;2023-03-11T10:51:34;7.00;99.90
48860;DHT22;34679;51.436;-2.518;2023-03-11T10:54:01;7.00;99.90
48860;DHT22;34679;51.436;-2.518;2023-03-11T10:56:36;7.10;99.90
48860;DHT22;34679;51.436;-2.518;2023-03-11T10:59:04;7.30;99.90
48860;DHT22;34679;51.436;-2.518;2023-03-11T11:01:30;7.30;99.90
48860;DHT22;34679;51.436;-2.518;2023-03-11T11:03:58;7.20;99.90
48860;DHT22;34679;51.436;-2.518;2023-03-11T11:09:19;7.30;99.90
48860;DHT22;34679;51.436;-2.518;2023-03-11T11:12:13;7.50;99.90
48860;DHT22;34679;51.436;-2.518;2023-03-11T11:14:46;8.00;99.90
48860;DHT22;34679;51.436;-2.518;2023-03-11T11:17:23;8.10;99.90
48860;DHT22;34679;51.436;-2.518;2023-03-11T11:19:50;8.20;99.90
48860;DHT22;34679;51.436;-2.518;2023-03-11T11:22:19;8.20;99.90
48860;DHT22;34679;51.436;-2.518;2023-03-11T11:24:46;8.40;99.90
48860;DHT22;34679;51.436;-2.518;2023-03-11T11:27:28;8.60;99.90
48860;DHT22;34679;51.436;-2.518;2023-03-11T11:32:37;8.50;99.90
48860;DHT22;34679;51.436;-2.518;2023-03-11T11:35:03;8.40;99.90
48860;DHT22;34679;51.436;-2.518;2023-03-11T11:37:32;8.40;99.90
48860;DHT22;34679;51.436;-2.518;2023-03-11T11:40:05;8.50;99.90
48860;DHT22;34679;51.436;-2.518;2023-03-11T11:42:39;8.30;99.90
48860;DHT22;34679;51.436;-2.518;2023-03-11T11:45:39;8.10;99.90
48860;DHT22;34679;51.436;-2.518;2023-03-11T11:48:13;7.90;99.90
48860;DHT22;34679;51.436;-2.518;2023-03-11T11:50:50;8.00;99.90
48860;DHT22;34679;51.436;-2.518;2023-03-11T11:53:34;8.00;99.90
48860;DHT22;34679;51.436;-2.518;2023-03-11T11:56:02;7.90;99.90
48860;DHT22;34679;51.436;-2.518;2023-03-11T11:58:29;7.70;99.90
48860;DHT22;34679;51.436;-2.518;2023-03-11T12:02:15;7.50;99.90
48860;DHT22;34679;51.436;-2.518;2023-03-11T12:04:37;7.60;99.90
48860;DHT22;34679;51.436;-2.518;2023-03-11T12:18:34;8.00;99.90
48860;DHT22;34679;51.436;-2.518;2023-03-11T12:21:27;8.10;99.90
48860;DHT22;34679;51.436;-2.518;2023-03-11T12:26:37;8.20;99.90
48860;DHT22;34679;51.436;-2.518;2023-03-11T12:31:52;7.90;99.90
48860;DHT22;34679;51.436;-2.518;2023-03-11T12:34:20;7.90;99.90
48860;DHT22;34679;51.436;-2.518;2023-03-11T12:36:47;8.00;99.90
48860;DHT22;34679;51.436;-2.518;2023-03-11T12:39:29;8.00;99.90
48860;DHT22;34679;51.436;-2.518;2023-03-11T12:44:40;8.30;99.90
48860;DHT22;34679;51.436;-2.518;2023-03-11T12:49:40;8.30;99.90
48860;DHT22;34679;51.436;-2.518;2023-03-11T12:54:41;8.30;99.90
48860;DHT22;34679;51.436;-2.518;2023-03-11T13:07:48;8.30;99.90
48860;DHT22;34679;51.436;-2.518;2023-03-11T13:12:53;8.10;99.90
48860;DHT22;34679;51.436;-2.518;2023-03-11T13:20:45;7.80;99.90
48860;DHT22;34679;51.436;-2.518;2023-03-11T13:25:41;8.00;99.90
48860;DHT22;34679;51.436;-2.518;2023-03-11T13:28:58;7.90;99.90
48860;DHT22;34679;51.436;-2.518;2023-03-11T13:31:48;7.70;99.90
48860;DHT22;34679;51.436;-2.518;2023-03-11T13:34:47;7.70;99.90
48860;DHT22;34679;51.436;-2.518;2023-03-11T13:37:34;7.70;99.90
48860;DHT22;34679;51.436;-2.518;2023-03-11T13:42:59;7.80;99.90
48860;DHT22;34679;51.436;-2.518;2023-03-11T13:45:34;7.90;99.90
48860;DHT22;34679;51.436;-2.518;2023-03-11T13:48:04;7.70;99.90
48860;DHT22;34679;51.436;-2.518;2023-03-11T13:50:44;7.70;99.90
48860;DHT22;34679;51.436;-2.518;2023-03-11T13:53:20;7.70;99.90
48860;DHT22;34679;51.436;-2.518;2023-03-11T13:55:47;7.70;99.90
48860;DHT22;34679;51.436;-2.518;2023-03-11T13:58:20;7.50;99.90
48860;DHT22;34679;51.436;-2.518;2023-03-11T14:03:18;7.40;99.90
48860;DHT22;34679;51.436;-2.518;2023-03-11T14:05:49;7.40;99.90
48860;DHT22;34679;51.436;-2.518;2023-03-11T14:08:27;7.30;99.90
48860;DHT22;34679;51.436;-2.518;2023-03-11T14:11:02;7.30;99.90
48860;DHT22;34679;51.436;-2.518;2023-03-11T14:13:31;7.30;99.90
48860;DHT22;34679;51.436;-2.518;2023-03-11T14:16:06;7.40;99.90
48860;DHT22;34679;51.436;-2.518;2023-03-11T14:21:01;7.30;99.90
48860;DHT22;34679;51.436;-2.518;2023-03-11T14:23:32;7.20;99.90
48860;DHT22;34679;51.436;-2.518;2023-03-11T14:26:00;7.00;99.90
48860;DHT22;34679;51.436;-2.518;2023-03-11T14:28:28;7.00;99.90
48860;DHT22;34679;51.436;-2.518;2023-03-11T14:30:59;7.00;99.90
48860;DHT22;34679;51.436;-2.518;2023-03-11T14:33:25;7.00;99.90
48860;DHT22;34679;51.436;-2.518;2023-03-11T14:35:53;6.90;99.90
48860;DHT22;34679;51.436;-2.518;2023-03-11T14:38:25;6.70;99.90
48860;DHT22;34679;51.436;-2.518;2023-03-11T14:41:03;6.70;99.90
48860;DHT22;34679;51.436;-2.518;2023-03-11T14:43:34;6.50;99.90
48860;DHT22;34679;51.436;-2.518;2023-03-11T14:46:02;6.40;99.90
48860;DHT22;34679;51.436;-2.518;2023-03-11T14:48:38;6.40;99.90
48860;DHT22;34679;51.436;-2.518;2023-03-11T14:51:15;6.40;99.90
48860;DHT22;34679;51.436;-2.518;2023-03-11T14:53:46;6.40;99.90
48860;DHT22;34679;51.436;-2.518;2023-03-11T14:56:19;6.40;99.90
48860;DHT22;34679;51.436;-2.518;2023-03-11T15:06:27;6.20;99.90
48860;DHT22;34679;51.436;-2.518;2023-03-11T15:09:00;6.20;99.90
48860;DHT22;34679;51.436;-2.518;2023-03-11T15:11:27;6.20;99.90
48860;DHT22;34679;51.436;-2.518;2023-03-11T15:14:07;6.20;99.90
48860;DHT22;34679;51.436;-2.518;2023-03-11T15:16:37;6.20;99.90
48860;DHT22;34679;51.436;-2.518;2023-03-11T15:21:58;6.20;99.90
48860;DHT22;34679;51.436;-2.518;2023-03-11T15:24:30;6.10;99.90
48860;DHT22;34679;51.436;-2.518;2023-03-11T15:27:00;6.20;99.90
48860;DHT22;34679;51.436;-2.518;2023-03-11T15:29:27;6.10;99.90
48860;DHT22;34679;51.436;-2.518;2023-03-11T15:31:54;6.10;99.90
48860;DHT22;34679;51.436;-2.518;2023-03-11T15:34:27;6.00;99.90
48860;DHT22;34679;51.436;-2.518;2023-03-11T15:37:18;6.10;99.90
48860;DHT22;34679;51.436;-2.518;2023-03-11T15:39:46;6.00;99.90
48860;DHT22;34679;51.436;-2.518;2023-03-11T15:42:23;6.00;99.90
48860;DHT22;34679;51.436;-2.518;2023-03-11T15:45:08;6.10;99.90
48860;DHT22;34679;51.436;-2.518;2023-03-11T15:47:34;6.00;99.90
48860;DHT22;34679;51.436;-2.518;2023-03-11T15:50:22;6.00;99.90
48860;DHT22;34679;51.436;-2.518;2023-03-11T15:52:50;6.00;99.90
48860;DHT22;34679;51.436;-2.518;2023-03-11T15:55:16;6.00;99.90
48860;DHT22;34679;51.436;-2.518;2023-03-11T15:57:45;5.90;99.90
48860;DHT22;34679;51.436;-2.518;2023-03-11T16:00:17;5.90;99.90
48860;DHT22;34679;51.436;-2.518;2023-03-11T16:02:44;5.90;99.90
48860;DHT22;34679;51.436;-2.518;2023-03-11T16:05:19;5.90;99.90
48860;DHT22;34679;51.436;-2.518;2023-03-11T16:07:45;6.00;99.90
48860;DHT22;34679;51.436;-2.518;2023-03-11T16:10:13;5.90;99.90
48860;DHT22;34679;51.436;-2.518;2023-03-11T16:12:39;5.90;99.90
48860;DHT22;34679;51.436;-2.518;2023-03-11T16:15:05;5.90;99.90
48860;DHT22;34679;51.436;-2.518;2023-03-11T16:17:31;5.90;99.90
48860;DHT22;34679;51.436;-2.518;2023-03-11T16:19:57;5.90;99.90
48860;DHT22;34679;51.436;-2.518;2023-03-11T16:22:33;5.80;99.90
48860;DHT22;34679;51.436;-2.518;2023-03-11T16:25:00;5.90;99.90
48860;DHT22;34679;51.436;-2.518;2023-03-11T16:27:27;5.90;99.90
48860;DHT22;34679;51.436;-2.518;2023-03-11T16:29:53;5.90;99.90
48860;DHT22;34679;51.436;-2.518;2023-03-11T16:32:19;5.80;99.90
48860;DHT22;34679;51.436;-2.518;2023-03-11T16:34:45;5.90;99.90
48860;DHT22;34679;51.436;-2.518;2023-03-11T16:37:14;5.90;99.90
48860;DHT22;34679;51.436;-2.518;2023-03-11T16:39:40;5.90;99.90
48860;DHT22;34679;51.436;-2.518;2023-03-11T16:42:06;5.90;99.90
48860;DHT22;34679;51.436;-2.518;2023-03-11T16:44:32;5.90;99.90
48860;DHT22;34679;51.436;-2.518;2023-03-11T16:46:58;5.80;99.90
48860;DHT22;34679;51.436;-2.518;2023-03-11T16:49:24;5.90;99.90
48860;DHT22;34679;51.436;-2.518;2023-03-11T16:51:50;5.90;99.90
48860;DHT22;34679;51.436;-2.518;2023-03-11T16:54:15;5.90;99.90
48860;DHT22;34679;51.436;-2.518;2023-03-11T16:56:41;5.90;99.90
48860;DHT22;34679;51.436;-2.518;2023-03-11T16:59:07;5.80;99.90
48860;DHT22;34679;51.436;-2.518;2023-03-11T17:01:32;5.90;99.90
48860;DHT22;34679;51.436;-2.518;2023-03-11T17:04:05;5.80;99.90
48860;DHT22;34679;51.436;-2.518;2023-03-11T17:06:31;5.90;99.90
48860;DHT22;34679;51.436;-2.518;2023-03-11T17:08:57;5.90;99.90
48860;DHT22;34679;51.436;-2.518;2023-03-11T17:11:23;5.90;99.90
48860;DHT22;34679;51.436;-2.518;2023-03-11T17:13:54;5.90;99.90
48860;DHT22;34679;51.436;-2.518;2023-03-11T17:16:20;5.80;99.90
48860;DHT22;34679;51.436;-2.518;2023-03-11T17:18:46;5.80;99.90